createdAt,value
2023-03-22T00:00:34.012Z,12.10
2023-03-22T00:01:29.580Z,12.04
2023-03-22T00:02:25.672Z,12.03
2023-03-22T00:03:21.631Z,12.07
2023-03-22T00:04:17.632Z,12.11
2023-03-22T00:05:13.228Z,11.99
2023-03-22T00:06:08.842Z,12.10
2023-03-22T00:07:04.917Z,12.07
2023-03-22T00:08:00.525Z,12.10
2023-03-22T00:08:56.534Z,12.13
2023-03-22T00:09:52.607Z,12.08
2023-03-22T00:10:48.620Z,12.05
2023-03-22T00:11:44.657Z,12.07
2023-03-22T00:12:40.689Z,12.04
2023-03-22T00:13:36.712Z,12.04
2023-03-22T00:14:32.732Z,12.00
2023-03-22T00:15:28.755Z,11.93
2023-03-22T00:16:24.923Z,12.00
2023-03-22T00:17:32.121Z,11.96
2023-03-22T00:18:28.131Z,12.03
2023-03-22T00:19:24.163Z,11.93
2023-03-22T00:20:20.818Z,11.89
2023-03-22T00:21:16.208Z,12.03
2023-03-22T00:22:12.228Z,11.96
2023-03-22T00:23:08.265Z,12.04
2023-03-22T00:24:04.290Z,12.03
2023-03-22T00:25:00.312Z,11.99
2023-03-22T00:25:56.331Z,11.95
2023-03-22T00:26:51.908Z,11.93
2023-03-22T00:27:47.926Z,11.88
2023-03-22T00:28:43.999Z,11.95
2023-03-22T00:29:40.037Z,11.96
2023-03-22T00:30:36.066Z,11.82
2023-03-22T00:31:32.103Z,11.80
2023-03-22T00:32:28.115Z,11.95
2023-03-22T00:33:24.152Z,11.87
2023-03-22T00:34:20.177Z,11.79
2023-03-22T00:35:15.749Z,11.82
2023-03-22T00:36:11.804Z,11.85
2023-03-22T00:37:07.823Z,11.84
2023-03-22T00:38:03.365Z,11.82
2023-03-22T00:38:59.387Z,11.84
2023-03-22T00:39:55.422Z,11.88
2023-03-22T00:40:51.447Z,11.82
2023-03-22T00:41:47.621Z,11.84
2023-03-22T00:42:43.657Z,11.84
2023-03-22T00:43:39.664Z,11.93
2023-03-22T00:44:35.679Z,11.84
2023-03-22T00:45:31.762Z,11.80
2023-03-22T00:46:27.476Z,11.80
2023-03-22T00:47:23.426Z,11.88
2023-03-22T00:48:19.561Z,11.87
2023-03-22T00:49:15.535Z,11.82
2023-03-22T00:50:11.513Z,11.88
2023-03-22T00:51:07.549Z,11.80
2023-03-22T00:52:04.610Z,11.89
2023-03-22T00:53:00.633Z,11.85
2023-03-22T00:53:56.645Z,11.76
2023-03-22T00:54:53.214Z,11.85
2023-03-22T00:55:49.232Z,11.77
2023-03-22T00:56:45.266Z,11.85
2023-03-22T00:57:41.287Z,11.76
2023-03-22T00:58:37.303Z,11.84
2023-03-22T00:59:33.327Z,11.77
2023-03-22T01:00:28.918Z,11.80
2023-03-22T01:01:25.000Z,11.74
2023-03-22T01:02:20.951Z,11.73
2023-03-22T01:03:16.600Z,11.71
2023-03-22T01:04:12.560Z,11.77
2023-03-22T01:05:08.619Z,11.73
2023-03-22T01:06:04.138Z,11.73
2023-03-22T01:07:00.177Z,11.73
2023-03-22T01:07:56.210Z,11.73
2023-03-22T01:08:52.219Z,11.76
2023-03-22T01:09:48.242Z,11.69
2023-03-22T01:10:44.258Z,11.76
2023-03-22T01:11:39.802Z,11.74
2023-03-22T01:12:35.823Z,11.76
2023-03-22T01:13:31.856Z,11.70
2023-03-22T01:14:27.421Z,11.76
2023-03-22T01:15:22.960Z,11.74
2023-03-22T01:16:20.046Z,11.69
2023-03-22T01:17:16.047Z,11.69
2023-03-22T01:18:12.076Z,11.73
2023-03-22T01:19:07.633Z,11.71
2023-03-22T01:20:03.671Z,11.73
2023-03-22T01:20:59.239Z,11.67
2023-03-22T01:21:54.773Z,11.73
2023-03-22T01:22:50.782Z,11.73
2023-03-22T01:23:46.816Z,11.74
2023-03-22T01:24:42.854Z,11.74
2023-03-22T01:25:38.881Z,11.67
2023-03-22T01:26:34.896Z,11.62
2023-03-22T01:27:30.921Z,11.70
2023-03-22T01:28:27.320Z,11.61
2023-03-22T01:29:22.538Z,11.64
2023-03-22T01:30:18.569Z,11.76
2023-03-22T01:31:15.166Z,11.64
2023-03-22T01:32:11.166Z,11.66
2023-03-22T01:33:07.186Z,11.71
2023-03-22T01:34:02.739Z,11.69
2023-03-22T01:34:58.829Z,11.76
2023-03-22T01:35:54.859Z,11.73
2023-03-22T01:36:50.898Z,11.64
2023-03-22T01:37:46.907Z,11.67
2023-03-22T01:38:42.457Z,11.69
2023-03-22T01:39:38.490Z,11.69
2023-03-22T01:40:34.577Z,11.58
2023-03-22T01:41:30.118Z,11.66
2023-03-22T01:42:27.150Z,11.64
2023-03-22T01:43:22.703Z,11.67
2023-03-22T01:44:18.717Z,11.67
2023-03-22T01:45:14.797Z,11.66
2023-03-22T01:46:10.828Z,11.66
2023-03-22T01:47:06.814Z,11.73
2023-03-22T01:48:02.465Z,11.64
2023-03-22T01:48:58.482Z,11.74
2023-03-22T01:49:53.941Z,11.69
2023-03-22T01:50:50.001Z,11.74
2023-03-22T01:51:46.005Z,11.62
2023-03-22T01:52:42.108Z,11.69
2023-03-22T01:53:38.056Z,11.61
2023-03-22T01:54:34.063Z,11.66
2023-03-22T01:55:30.086Z,11.66
2023-03-22T01:56:26.133Z,11.64
2023-03-22T01:57:22.154Z,11.64
2023-03-22T01:58:17.692Z,11.69
2023-03-22T01:59:13.718Z,11.62
2023-03-22T02:00:09.768Z,11.58
2023-03-22T02:01:05.851Z,11.58
2023-03-22T02:02:01.851Z,11.55
2023-03-22T02:02:57.494Z,11.56
2023-03-22T02:03:53.486Z,11.52
2023-03-22T02:04:49.054Z,11.54
2023-03-22T02:05:45.064Z,11.61
2023-03-22T02:06:40.622Z,11.56
2023-03-22T02:07:36.630Z,11.56
2023-03-22T02:08:32.683Z,11.59
2023-03-22T02:09:28.196Z,11.58
2023-03-22T02:10:25.229Z,11.58
2023-03-22T02:11:21.258Z,11.61
2023-03-22T02:12:17.288Z,11.58
2023-03-22T02:13:13.303Z,11.51
2023-03-22T02:14:08.870Z,11.52
2023-03-22T02:15:05.907Z,11.55
2023-03-22T02:16:01.973Z,11.54
2023-03-22T02:16:57.483Z,11.43
2023-03-22T02:17:53.507Z,11.48
2023-03-22T02:18:49.552Z,11.51
2023-03-22T02:19:45.616Z,11.55
2023-03-22T02:20:41.843Z,11.43
2023-03-22T02:21:38.628Z,11.40
2023-03-22T02:22:34.653Z,11.51
2023-03-22T02:23:30.673Z,11.41
2023-03-22T02:24:26.711Z,11.40
2023-03-22T02:25:22.724Z,11.43
2023-03-22T02:26:18.752Z,11.41
2023-03-22T02:27:14.764Z,11.38
2023-03-22T02:28:10.779Z,11.40
2023-03-22T02:29:06.808Z,11.38
2023-03-22T02:30:03.843Z,11.36
2023-03-22T02:30:59.936Z,11.31
2023-03-22T02:31:55.910Z,11.36
2023-03-22T02:32:51.924Z,11.33
2023-03-22T02:33:47.949Z,11.33
2023-03-22T02:34:43.957Z,11.36
2023-03-22T02:35:40.078Z,11.33
2023-03-22T02:36:36.055Z,11.33
2023-03-22T02:37:32.083Z,11.30
2023-03-22T02:38:28.098Z,11.33
2023-03-22T02:39:24.140Z,11.36
2023-03-22T02:40:20.192Z,11.28
2023-03-22T02:41:16.188Z,11.27
2023-03-22T02:42:12.236Z,11.31
2023-03-22T02:43:08.266Z,11.28
2023-03-22T02:44:04.282Z,11.30
2023-03-22T02:45:00.843Z,11.27
2023-03-22T02:45:56.865Z,11.28
2023-03-22T02:46:53.055Z,11.18
2023-03-22T02:47:48.587Z,11.20
2023-03-22T02:48:44.551Z,11.25
2023-03-22T02:49:41.582Z,11.22
2023-03-22T02:50:37.300Z,11.20
2023-03-22T02:51:33.159Z,11.16
2023-03-22T02:52:28.689Z,11.18
2023-03-22T02:53:24.743Z,11.22
2023-03-22T02:54:20.786Z,11.23
2023-03-22T02:55:16.798Z,11.16
2023-03-22T02:56:12.844Z,11.12
2023-03-22T02:57:08.849Z,11.18
2023-03-22T02:58:05.887Z,11.18
2023-03-22T02:59:01.925Z,11.12
2023-03-22T02:59:57.963Z,11.05
2023-03-22T03:00:54.043Z,11.18
2023-03-22T03:01:50.119Z,11.18
2023-03-22T03:02:46.034Z,11.12
2023-03-22T03:03:42.073Z,11.20
2023-03-22T03:04:38.093Z,11.04
2023-03-22T03:05:34.135Z,11.09
2023-03-22T03:06:30.173Z,11.12
2023-03-22T03:07:26.193Z,10.98
2023-03-22T03:08:22.228Z,11.09
2023-03-22T03:09:18.250Z,11.08
2023-03-22T03:10:14.290Z,11.09
2023-03-22T03:11:10.304Z,11.09
2023-03-22T03:12:06.364Z,11.05
2023-03-22T03:13:02.376Z,11.04
2023-03-22T03:13:47.511Z,11.09
2023-03-22T03:14:43.545Z,11.05
2023-03-22T03:15:39.570Z,11.05
2023-03-22T03:16:35.608Z,11.03
2023-03-22T03:17:31.622Z,11.04
2023-03-22T03:18:27.659Z,11.03
2023-03-22T03:19:23.708Z,10.97
2023-03-22T03:20:19.740Z,11.04
2023-03-22T03:21:15.772Z,11.04
2023-03-22T03:22:11.793Z,10.98
2023-03-22T03:23:08.859Z,11.04
2023-03-22T03:24:04.876Z,11.00
2023-03-22T03:25:00.883Z,11.01
2023-03-22T03:25:56.910Z,10.95
2023-03-22T03:26:52.931Z,10.95
2023-03-22T03:27:48.978Z,10.90
2023-03-22T03:28:44.985Z,10.85
2023-03-22T03:29:41.011Z,10.86
2023-03-22T03:30:37.230Z,10.91
2023-03-22T03:31:33.151Z,10.82
2023-03-22T03:32:29.098Z,10.85
2023-03-22T03:33:25.128Z,10.80
2023-03-22T03:34:21.151Z,10.80
2023-03-22T03:35:17.261Z,10.93
2023-03-22T03:36:13.229Z,10.85
2023-03-22T03:37:09.258Z,10.87
2023-03-22T03:38:05.270Z,10.78
2023-03-22T03:39:01.288Z,10.80
2023-03-22T03:39:57.343Z,10.80
2023-03-22T03:40:53.348Z,10.85
2023-03-22T03:41:49.394Z,10.82
2023-03-22T03:42:45.456Z,10.76
2023-03-22T03:43:41.490Z,10.73
2023-03-22T03:44:37.514Z,10.76
2023-03-22T03:45:34.577Z,10.75
2023-03-22T03:46:30.555Z,10.78
2023-03-22T03:47:26.578Z,10.79
2023-03-22T03:48:22.687Z,10.73
2023-03-22T03:49:18.622Z,10.78
2023-03-22T03:50:14.632Z,10.76
2023-03-22T03:51:10.653Z,10.75
2023-03-22T03:52:06.687Z,10.72
2023-03-22T03:53:02.726Z,10.75
2023-03-22T03:53:58.908Z,10.79
2023-03-22T03:54:54.969Z,10.73
2023-03-22T03:55:51.018Z,10.75
2023-03-22T03:56:47.088Z,10.73
2023-03-22T03:57:43.101Z,10.72
2023-03-22T03:58:39.155Z,10.70
2023-03-22T03:59:35.221Z,10.70
2023-03-22T04:00:31.231Z,10.68
2023-03-22T04:01:27.321Z,10.70
2023-03-22T04:02:24.405Z,10.65
2023-03-22T04:03:20.410Z,10.64
2023-03-22T04:04:16.485Z,10.65
2023-03-22T04:05:12.456Z,10.60
2023-03-22T04:06:09.534Z,10.58
2023-03-22T04:07:05.571Z,10.64
2023-03-22T04:08:01.679Z,10.62
2023-03-22T04:08:57.720Z,10.57
2023-03-22T04:09:53.727Z,10.57
2023-03-22T04:10:49.808Z,10.60
2023-03-22T04:11:45.819Z,10.61
2023-03-22T04:12:42.044Z,10.60
2023-03-22T04:13:37.984Z,10.60
2023-03-22T04:14:34.024Z,10.58
2023-03-22T04:15:30.182Z,10.61
2023-03-22T04:16:26.087Z,10.54
2023-03-22T04:17:22.117Z,10.57
2023-03-22T04:18:19.180Z,10.62
2023-03-22T04:19:15.229Z,10.55
2023-03-22T04:20:12.248Z,10.61
2023-03-22T04:21:08.292Z,10.54
2023-03-22T04:22:04.335Z,10.55
2023-03-22T04:23:00.403Z,10.55
2023-03-22T04:23:56.430Z,10.54
2023-03-22T04:24:52.556Z,10.55
2023-03-22T04:25:48.561Z,10.57
2023-03-22T04:26:45.821Z,10.58
2023-03-22T04:27:41.766Z,10.57
2023-03-22T04:28:37.831Z,10.60
2023-03-22T04:29:33.906Z,10.58
2023-03-22T04:30:29.905Z,10.58
2023-03-22T04:31:25.999Z,10.62
2023-03-22T04:32:21.970Z,10.57
2023-03-22T04:33:17.996Z,10.60
2023-03-22T04:34:14.097Z,10.58
2023-03-22T04:35:10.117Z,10.57
2023-03-22T04:36:06.148Z,10.55
2023-03-22T04:37:02.199Z,10.67
2023-03-22T04:37:58.227Z,10.54
2023-03-22T04:38:54.282Z,10.52
2023-03-22T04:40:01.988Z,10.55
2023-03-22T04:40:57.999Z,10.61
2023-03-22T04:41:55.134Z,10.55
2023-03-22T04:42:51.137Z,10.54
2023-03-22T04:43:47.298Z,10.55
2023-03-22T04:44:43.289Z,10.54
2023-03-22T04:45:39.321Z,10.54
2023-03-22T04:46:35.447Z,10.54
2023-03-22T04:47:31.387Z,10.58
2023-03-22T04:48:27.462Z,10.61
2023-03-22T04:49:23.526Z,10.48
2023-03-22T04:50:20.094Z,10.60
2023-03-22T04:51:28.575Z,10.54
2023-03-22T04:52:24.654Z,10.49
2023-03-22T04:53:21.674Z,10.49
2023-03-22T04:54:17.777Z,10.57
2023-03-22T04:55:13.763Z,10.60
2023-03-22T04:56:10.892Z,10.42
2023-03-22T04:57:06.853Z,10.58
2023-03-22T04:58:02.903Z,10.60
2023-03-22T04:58:58.935Z,10.52
2023-03-22T04:59:55.965Z,10.57
2023-03-22T05:00:52.154Z,10.52
2023-03-22T05:01:49.291Z,10.52
2023-03-22T05:02:45.194Z,10.55
2023-03-22T05:03:41.241Z,10.57
2023-03-22T05:04:37.263Z,10.65
2023-03-22T05:05:33.314Z,10.48
2023-03-22T05:06:30.382Z,10.57
2023-03-22T05:07:26.495Z,10.61
2023-03-22T05:08:22.566Z,10.45
2023-03-22T05:09:18.598Z,10.60
2023-03-22T05:10:14.552Z,10.55
2023-03-22T05:11:10.631Z,10.57
2023-03-22T05:12:07.725Z,10.54
2023-03-22T05:13:03.874Z,10.54
2023-03-22T05:13:59.755Z,10.57
2023-03-22T05:14:55.818Z,10.57
2023-03-22T05:15:52.036Z,10.48
2023-03-22T05:16:47.879Z,10.57
2023-03-22T05:17:43.968Z,10.52
2023-03-22T05:18:40.013Z,10.46
2023-03-22T05:19:37.017Z,10.55
2023-03-22T05:20:33.046Z,10.55
2023-03-22T05:21:29.187Z,10.54
2023-03-22T05:22:25.187Z,10.45
2023-03-22T05:23:21.244Z,10.52
2023-03-22T05:24:17.358Z,10.54
2023-03-22T05:25:13.331Z,10.43
2023-03-22T05:26:09.389Z,10.41
2023-03-22T05:27:05.400Z,10.42
2023-03-22T05:28:01.420Z,10.43
2023-03-22T05:28:57.572Z,10.57
2023-03-22T05:29:54.628Z,10.61
2023-03-22T05:30:50.653Z,10.61
2023-03-22T05:31:46.796Z,10.43
2023-03-22T05:32:42.852Z,10.42
2023-03-22T05:33:38.882Z,10.55
2023-03-22T05:34:34.898Z,10.45
2023-03-22T05:35:30.962Z,10.43
2023-03-22T05:36:26.976Z,10.42
2023-03-22T05:37:23.021Z,10.46
2023-03-22T05:38:19.095Z,10.46
2023-03-22T05:39:15.178Z,10.55
2023-03-22T05:40:11.346Z,10.45
2023-03-22T05:41:07.357Z,10.54
2023-03-22T05:42:03.371Z,10.55
2023-03-22T05:42:59.474Z,10.49
2023-03-22T05:43:55.451Z,10.55
2023-03-22T05:44:51.544Z,10.43
2023-03-22T05:45:48.548Z,10.48
2023-03-22T05:46:55.935Z,10.57
2023-03-22T05:47:52.023Z,10.49
2023-03-22T05:48:47.996Z,10.52
2023-03-22T05:49:44.013Z,10.54
2023-03-22T05:50:40.441Z,10.45
2023-03-22T05:51:36.133Z,10.46
2023-03-22T05:52:32.262Z,10.45
2023-03-22T05:53:28.390Z,10.55
2023-03-22T05:54:24.476Z,10.52
2023-03-22T05:55:20.559Z,10.49
2023-03-22T05:56:17.577Z,10.58
2023-03-22T05:57:13.660Z,10.57
2023-03-22T05:57:58.850Z,10.45
2023-03-22T05:58:54.938Z,10.61
2023-03-22T05:59:51.012Z,10.52
2023-03-22T06:00:47.010Z,10.48
2023-03-22T06:01:43.090Z,10.57
2023-03-22T06:02:39.157Z,10.57
2023-03-22T06:03:36.224Z,10.48
2023-03-22T06:04:32.183Z,10.54
2023-03-22T06:05:29.222Z,10.52
2023-03-22T06:06:26.309Z,10.52
2023-03-22T06:07:22.388Z,10.49
2023-03-22T06:08:18.397Z,10.48
2023-03-22T06:09:17.665Z,10.52
2023-03-22T06:10:11.576Z,10.49
2023-03-22T06:11:07.631Z,10.49
2023-03-22T06:12:03.633Z,10.52
2023-03-22T06:12:59.820Z,10.48
2023-03-22T06:13:55.898Z,10.57
2023-03-22T06:14:52.023Z,10.45
2023-03-22T06:15:47.936Z,10.60
2023-03-22T06:16:44.107Z,10.46
2023-03-22T06:17:40.170Z,10.58
2023-03-22T06:18:36.120Z,10.60
2023-03-22T06:19:32.314Z,10.43
2023-03-22T06:20:28.297Z,10.54
2023-03-22T06:21:24.436Z,10.41
2023-03-22T06:22:20.488Z,10.54
2023-03-22T06:23:16.752Z,10.55
2023-03-22T06:24:12.797Z,10.52
2023-03-22T06:25:09.908Z,10.48
2023-03-22T06:26:07.954Z,10.57
2023-03-22T06:27:06.151Z,10.54
2023-03-22T06:28:02.164Z,10.60
2023-03-22T06:28:58.363Z,10.55
2023-03-22T06:29:54.355Z,10.55
2023-03-22T06:30:39.671Z,10.62
2023-03-22T06:31:26.536Z,10.64
2023-03-22T06:32:22.358Z,10.60
2023-03-22T06:33:20.615Z,10.60
2023-03-22T06:34:16.720Z,10.57
2023-03-22T06:35:13.878Z,10.52
2023-03-22T06:36:00.757Z,10.57
2023-03-22T06:36:57.698Z,10.57
2023-03-22T06:37:45.242Z,10.60
2023-03-22T06:38:42.413Z,10.61
2023-03-22T06:39:39.555Z,10.61
2023-03-22T06:40:36.338Z,10.64
2023-03-22T06:41:34.135Z,10.58
2023-03-22T06:42:30.672Z,10.60
2023-03-22T06:43:27.449Z,10.72
2023-03-22T06:44:24.548Z,10.72
2023-03-22T06:45:21.235Z,10.65
2023-03-22T06:46:17.272Z,10.72
2023-03-22T06:47:13.350Z,10.67
2023-03-22T06:48:11.310Z,10.72
2023-03-22T06:49:09.490Z,10.76
2023-03-22T06:50:06.714Z,10.76
2023-03-22T06:50:51.885Z,10.78
2023-03-22T06:51:49.424Z,10.72
2023-03-22T06:53:08.174Z,10.73
2023-03-22T06:54:04.982Z,10.75
2023-03-22T06:55:01.213Z,10.83
2023-03-22T06:55:46.095Z,10.76
2023-03-22T06:56:42.310Z,10.80
2023-03-22T06:57:38.220Z,10.75
2023-03-22T06:58:36.617Z,10.75
2023-03-22T06:59:32.217Z,10.76
2023-03-22T07:00:19.992Z,10.68
2023-03-22T07:01:06.458Z,10.72
2023-03-22T07:01:51.528Z,10.78
2023-03-22T07:02:52.237Z,10.83
2023-03-22T07:03:35.666Z,10.85
2023-03-22T07:04:33.748Z,10.86
2023-03-22T07:05:18.821Z,10.87
2023-03-22T07:06:04.421Z,10.72
2023-03-22T07:07:01.555Z,10.90
2023-03-22T07:07:57.667Z,10.85
2023-03-22T07:08:53.729Z,10.87
2023-03-22T07:09:49.790Z,10.91
2023-03-22T07:10:45.898Z,10.94
2023-03-22T07:11:41.934Z,10.91
2023-03-22T07:12:39.959Z,10.94
2023-03-22T07:13:36.003Z,10.95
2023-03-22T07:14:32.019Z,10.87
2023-03-22T07:15:29.101Z,10.94
2023-03-22T07:16:26.238Z,10.93
2023-03-22T07:17:24.781Z,11.05
2023-03-22T07:18:20.704Z,11.08
2023-03-22T07:19:17.776Z,11.05
2023-03-22T07:20:14.922Z,11.12
2023-03-22T07:21:10.891Z,11.09
2023-03-22T07:22:07.005Z,11.09
2023-03-22T07:23:03.043Z,11.01
2023-03-22T07:23:59.174Z,11.12
2023-03-22T07:24:57.842Z,11.08
2023-03-22T07:25:51.261Z,11.15
2023-03-22T07:26:47.284Z,11.18
2023-03-22T07:27:43.413Z,11.25
2023-03-22T07:28:39.497Z,11.11
2023-03-22T07:29:36.493Z,11.18
2023-03-22T07:30:32.576Z,11.18
2023-03-22T07:31:29.712Z,11.28
2023-03-22T07:32:26.815Z,11.18
2023-03-22T07:33:23.827Z,11.16
2023-03-22T07:34:19.851Z,11.22
2023-03-22T07:35:15.987Z,11.28
2023-03-22T07:36:12.156Z,11.37
2023-03-22T07:37:08.226Z,11.36
2023-03-22T07:38:04.240Z,11.40
2023-03-22T07:39:00.317Z,11.41
2023-03-22T07:39:56.346Z,11.36
2023-03-22T07:40:52.644Z,11.52
2023-03-22T07:41:38.652Z,11.54
2023-03-22T07:42:35.725Z,11.55
2023-03-22T07:43:35.393Z,11.52
2023-03-22T07:44:28.907Z,11.54
2023-03-22T07:45:25.916Z,11.55
2023-03-22T07:46:22.011Z,11.62
2023-03-22T07:47:30.632Z,11.62
2023-03-22T07:48:15.120Z,11.61
2023-03-22T07:49:11.223Z,11.67
2023-03-22T07:50:19.387Z,11.66
2023-03-22T07:51:15.594Z,11.71
2023-03-22T07:52:12.612Z,11.71
2023-03-22T07:53:08.872Z,11.79
2023-03-22T07:54:32.062Z,11.79
2023-03-22T07:55:12.157Z,11.85
2023-03-22T07:56:08.258Z,11.85
2023-03-22T07:57:04.230Z,11.93
2023-03-22T07:58:00.306Z,11.89
2023-03-22T07:58:56.415Z,11.95
2023-03-22T07:59:52.422Z,11.91
2023-03-22T08:00:48.457Z,12.03
2023-03-22T08:01:44.590Z,11.97
2023-03-22T08:02:41.627Z,12.00
2023-03-22T08:03:37.768Z,12.15
2023-03-22T08:04:33.852Z,12.10
2023-03-22T08:05:41.671Z,12.25
2023-03-22T08:06:38.180Z,12.14
2023-03-22T08:07:34.293Z,12.26
2023-03-22T08:08:30.410Z,12.29
2023-03-22T08:09:26.452Z,12.38
2023-03-22T08:10:22.555Z,12.41
2023-03-22T08:11:18.559Z,12.41
2023-03-22T08:12:14.814Z,12.44
2023-03-22T08:13:11.799Z,12.44
2023-03-22T08:14:07.822Z,12.48
2023-03-22T08:15:03.919Z,12.58
2023-03-22T08:16:00.068Z,12.58
2023-03-22T08:16:55.941Z,12.63
2023-03-22T08:17:52.220Z,12.54
2023-03-22T08:18:48.175Z,12.71
2023-03-22T08:19:44.188Z,12.58
2023-03-22T08:20:40.437Z,12.73
2023-03-22T08:21:37.396Z,12.80
2023-03-22T08:22:33.410Z,12.72
2023-03-22T08:23:41.069Z,12.86
2023-03-22T08:24:26.519Z,12.86
2023-03-22T08:25:22.527Z,12.87
2023-03-22T08:26:19.567Z,12.87
2023-03-22T08:27:15.655Z,12.90
2023-03-22T08:28:11.821Z,12.88
2023-03-22T08:29:09.730Z,12.96
2023-03-22T08:30:04.886Z,13.01
2023-03-22T08:31:00.842Z,12.98
2023-03-22T08:31:57.096Z,13.08
2023-03-22T08:32:52.988Z,13.11
2023-03-22T08:33:50.096Z,13.09
2023-03-22T08:34:47.254Z,13.16
2023-03-22T08:35:43.268Z,13.16
2023-03-22T08:36:40.292Z,13.24
2023-03-22T08:37:36.354Z,13.23
2023-03-22T08:38:33.510Z,13.27
2023-03-22T08:39:29.509Z,13.27
2023-03-22T08:40:25.599Z,13.27
2023-03-22T08:41:22.753Z,13.36
2023-03-22T08:42:19.762Z,13.29
2023-03-22T08:43:15.875Z,13.29
2023-03-22T08:44:12.040Z,13.29
2023-03-22T08:45:08.145Z,13.42
2023-03-22T08:46:05.055Z,13.29
2023-03-22T08:47:02.270Z,13.29
2023-03-22T08:47:57.203Z,13.43
2023-03-22T08:48:53.260Z,13.42
2023-03-22T08:49:49.327Z,13.47
2023-03-22T08:50:45.545Z,13.45
2023-03-22T08:51:53.802Z,13.51
2023-03-22T08:52:49.872Z,13.55
2023-03-22T08:53:46.189Z,13.53
2023-03-22T08:54:43.010Z,13.58
2023-03-22T08:55:39.476Z,13.63
2023-03-22T08:56:37.777Z,13.63
2023-03-22T08:57:33.903Z,13.65
2023-03-22T08:58:30.913Z,13.67
2023-03-22T08:59:28.201Z,13.61
2023-03-22T09:00:24.046Z,13.61
2023-03-22T09:01:20.347Z,13.75
2023-03-22T09:02:16.432Z,13.79
2023-03-22T09:03:12.230Z,13.76
2023-03-22T09:04:10.546Z,13.83
2023-03-22T09:05:05.498Z,13.93
2023-03-22T09:06:01.365Z,13.94
2023-03-22T09:06:57.517Z,13.97
2023-03-22T09:07:53.489Z,14.00
2023-03-22T09:08:50.673Z,14.01
2023-03-22T09:09:46.709Z,14.05
2023-03-22T09:10:42.780Z,14.11
2023-03-22T09:11:38.780Z,14.11
2023-03-22T09:12:34.903Z,14.15
2023-03-22T09:13:30.988Z,14.27
2023-03-22T09:14:28.117Z,14.31
2023-03-22T09:15:24.273Z,14.46
2023-03-22T09:16:20.528Z,14.59
2023-03-22T09:17:16.394Z,14.77
2023-03-22T09:18:12.388Z,14.89
2023-03-22T09:19:08.628Z,15.03
2023-03-22T09:20:12.543Z,15.23
2023-03-22T09:21:00.658Z,15.45
2023-03-22T09:21:57.708Z,15.78
2023-03-22T09:22:53.864Z,15.93
2023-03-22T09:23:49.779Z,16.03
2023-03-22T09:24:47.201Z,16.26
2023-03-22T09:25:43.202Z,16.54
2023-03-22T09:26:39.330Z,16.76
2023-03-22T09:27:35.363Z,17.04
2023-03-22T09:28:33.130Z,17.22
2023-03-22T09:29:40.251Z,17.50
2023-03-22T09:30:37.358Z,17.76
2023-03-22T09:31:33.517Z,18.08
2023-03-22T09:32:29.541Z,18.27
2023-03-22T09:33:26.633Z,18.49
2023-03-22T09:34:22.684Z,18.54
2023-03-22T09:35:18.909Z,18.57
2023-03-22T09:36:14.823Z,18.70
2023-03-22T09:37:10.951Z,18.81
2023-03-22T09:38:06.969Z,18.86
2023-03-22T09:39:04.150Z,19.00
2023-03-22T09:39:50.331Z,19.00
2023-03-22T09:40:46.476Z,19.09
2023-03-22T09:41:42.387Z,19.23
2023-03-22T09:42:38.388Z,19.23
2023-03-22T09:43:34.848Z,19.22
2023-03-22T09:44:30.483Z,19.26
2023-03-22T09:45:26.617Z,19.32
2023-03-22T09:46:22.761Z,19.35
2023-03-22T09:47:18.966Z,19.39
2023-03-22T09:48:14.976Z,19.41
2023-03-22T09:49:11.233Z,19.47
2023-03-22T09:50:07.181Z,19.52
2023-03-22T09:51:03.271Z,19.49
2023-03-22T09:52:10.978Z,19.41
2023-03-22T09:53:06.875Z,19.49
2023-03-22T09:54:12.462Z,19.60
2023-03-22T09:55:08.516Z,19.60
2023-03-22T09:56:04.596Z,19.72
2023-03-22T09:57:00.632Z,19.82
2023-03-22T09:57:56.646Z,19.99
2023-03-22T09:58:52.854Z,20.07
2023-03-22T09:59:48.714Z,20.00
2023-03-22T10:00:44.906Z,20.07
2023-03-22T10:01:41.054Z,20.02
2023-03-22T10:02:36.977Z,19.92
2023-03-22T10:03:32.866Z,19.90
2023-03-22T10:04:29.004Z,20.07
2023-03-22T10:05:25.018Z,20.19
2023-03-22T10:06:21.059Z,20.30
2023-03-22T10:07:17.080Z,20.41
2023-03-22T10:08:13.122Z,20.58
2023-03-22T10:09:09.146Z,20.68
2023-03-22T10:10:05.244Z,20.73
2023-03-22T10:11:01.273Z,20.79
2023-03-22T10:11:57.337Z,20.79
2023-03-22T10:12:53.371Z,20.89
2023-03-22T10:13:49.382Z,20.95
2023-03-22T10:14:45.406Z,20.83
2023-03-22T10:15:42.076Z,21.04
2023-03-22T10:16:37.540Z,21.11
2023-03-22T10:17:33.512Z,21.11
2023-03-22T10:18:29.521Z,21.20
2023-03-22T10:19:25.589Z,21.25
2023-03-22T10:20:21.614Z,21.38
2023-03-22T10:21:17.655Z,21.47
2023-03-22T10:22:13.694Z,21.58
2023-03-22T10:23:09.717Z,21.62
2023-03-22T10:24:05.747Z,21.58
2023-03-22T10:25:01.777Z,21.55
2023-03-22T10:25:57.820Z,21.53
2023-03-22T10:26:54.888Z,21.63
2023-03-22T10:27:50.936Z,21.60
2023-03-22T10:28:46.935Z,21.60
2023-03-22T10:29:42.962Z,21.66
2023-03-22T10:30:40.274Z,21.53
2023-03-22T10:31:36.149Z,21.62
2023-03-22T10:32:32.126Z,21.62
2023-03-22T10:33:28.128Z,21.84
2023-03-22T10:34:24.148Z,21.73
2023-03-22T10:35:20.247Z,21.71
2023-03-22T10:36:16.238Z,21.66
2023-03-22T10:37:13.268Z,21.81
2023-03-22T10:38:09.290Z,21.91
2023-03-22T10:39:05.309Z,21.81
2023-03-22T10:40:02.365Z,21.93
2023-03-22T10:40:58.397Z,21.97
2023-03-22T10:41:56.378Z,21.81
2023-03-22T10:42:50.548Z,21.78
2023-03-22T10:43:46.626Z,21.88
2023-03-22T10:44:42.622Z,21.75
2023-03-22T10:45:39.136Z,21.82
2023-03-22T10:46:34.708Z,21.77
2023-03-22T10:47:30.698Z,21.78
2023-03-22T10:48:26.766Z,21.85
2023-03-22T10:49:22.737Z,21.63
2023-03-22T10:50:19.774Z,21.60
2023-03-22T10:51:15.835Z,21.53
2023-03-22T10:52:11.824Z,21.62
2023-03-22T10:53:07.843Z,21.63
2023-03-22T10:54:03.868Z,21.41
2023-03-22T10:55:03.800Z,21.41
2023-03-22T10:55:55.949Z,21.34
2023-03-22T10:56:51.979Z,21.28
2023-03-22T10:57:48.013Z,21.26
2023-03-22T10:58:44.036Z,21.23
2023-03-22T10:59:40.150Z,21.26
2023-03-22T11:00:39.381Z,21.32
2023-03-22T11:01:32.459Z,21.26
2023-03-22T11:02:28.543Z,21.30
2023-03-22T11:03:24.854Z,21.25
2023-03-22T11:04:20.877Z,21.22
2023-03-22T11:05:16.913Z,21.14
2023-03-22T11:06:12.961Z,20.97
2023-03-22T11:07:09.085Z,20.95
2023-03-22T11:08:06.134Z,20.90
2023-03-22T11:09:02.180Z,21.03
2023-03-22T11:09:58.189Z,20.92
2023-03-22T11:10:54.273Z,20.98
2023-03-22T11:11:51.270Z,20.95
2023-03-22T11:12:47.309Z,20.88
2023-03-22T11:13:43.350Z,20.89
2023-03-22T11:14:39.361Z,20.92
2023-03-22T11:15:35.427Z,21.00
2023-03-22T11:16:31.493Z,21.05
2023-03-22T11:17:27.440Z,21.14
2023-03-22T11:18:23.466Z,21.16
2023-03-22T11:19:19.515Z,21.16
2023-03-22T11:20:15.691Z,21.05
2023-03-22T11:21:11.576Z,21.05
2023-03-22T11:22:07.620Z,20.97
2023-03-22T11:23:03.648Z,21.00
2023-03-22T11:23:59.672Z,20.75
2023-03-22T11:24:55.695Z,20.77
2023-03-22T11:25:51.732Z,20.63
2023-03-22T11:26:47.751Z,20.63
2023-03-22T11:27:43.798Z,20.64
2023-03-22T11:28:40.846Z,20.58
2023-03-22T11:29:36.886Z,20.68
2023-03-22T11:30:33.946Z,20.42
2023-03-22T11:31:31.053Z,20.41
2023-03-22T11:32:27.109Z,20.33
2023-03-22T11:33:23.052Z,20.34
2023-03-22T11:34:19.097Z,20.34
2023-03-22T11:35:15.116Z,20.32
2023-03-22T11:36:12.245Z,20.32
2023-03-22T11:37:08.849Z,20.27
2023-03-22T11:38:04.888Z,20.18
2023-03-22T11:39:00.947Z,20.22
2023-03-22T11:39:56.931Z,20.14
2023-03-22T11:40:52.966Z,20.02
2023-03-22T11:41:49.003Z,19.99
2023-03-22T11:42:45.016Z,20.07
2023-03-22T11:43:41.047Z,20.22
2023-03-22T11:44:37.060Z,20.30
2023-03-22T11:45:33.074Z,20.32
2023-03-22T11:46:29.185Z,20.27
2023-03-22T11:47:25.275Z,20.34
2023-03-22T11:48:21.339Z,20.25
2023-03-22T11:49:17.302Z,20.22
2023-03-22T11:50:13.327Z,20.25
2023-03-22T11:51:09.373Z,20.33
2023-03-22T11:52:05.431Z,20.56
2023-03-22T11:53:01.426Z,20.65
2023-03-22T11:53:58.506Z,20.73
2023-03-22T11:54:54.535Z,20.85
2023-03-22T11:55:50.578Z,20.86
2023-03-22T11:56:46.590Z,20.97
2023-03-22T11:57:43.219Z,21.16
2023-03-22T11:58:39.237Z,21.25
2023-03-22T11:59:35.253Z,21.18
2023-03-22T12:00:31.273Z,21.26
2023-03-22T12:01:27.347Z,21.35
2023-03-22T12:02:23.591Z,21.51
2023-03-22T12:03:19.630Z,21.65